Velkommen til

Stord Flyklubb

Om oss

Historien til Stord Flyklubb

Klubbens aner strekker seg tilbake til 1969 med sjøfly. Siden har vi sett vanlige motorfly og glidefly, men det er sportsfly som er hovedfokuset i dag

En kilometer vei vil ta deg en kilometer

En kilometer rullebane vil ta deg hvor enn du vil

Bli pilot

Alle kan lære å fly!

Ta en prøvetur hos oss og se hvor moro det er! Prøveturen gir deg en mulighet til å se om dette er noe du har lyst til å gå videre med.

Teorien tas av de fleste som hjemmeundervisning. Nytt læremateriell gjør opplæringen både enklere og mer strømlinjeformet.

Praksis kan påbegynnes mens man tar teorien, men teorien må være bestått før man kan fly solo. 

METAR Haugesund
ENHD 190720Z AUTO 12013KT 9999 FEW011/// BKN037/// BKN047/// 12/10 Q1021 ENHD 190650Z AUTO 14012KT 7000 DZ ///034/// 12/09 Q1021 ENHD 190620Z AUTO 14012KT 8000 DZ ///041/// 12/09 Q1020 RERA ENHD 190550Z AUTO 14015KT 9999 -DZ ///038/// 13/08 Q1020 RERA ENHD 190520Z AUTO 15012KT 9999 DZ FEW016/// BKN020/// OVC041/// 13/09 Q1020 ENHD 190450Z AUTO VRB09KT 9999 FEW024/// OVC037/// 14/08 Q1020
METAR Flesland
ENBR 190720Z 17006KT 9999 -SHRA FEW030 BKN040 14/09 Q1020 NOSIG RMK WIND 1200FT 17012KT ENBR 190650Z 15003KT 120V190 9999 BKN040 13/09 Q1020 NOSIG RMK WIND 1200FT 15012KT ENBR 190620Z 16005KT 9999 BKN037 13/08 Q1020 NOSIG RMK WIND 1200FT 15014KT ENBR 190550Z 18005KT 9999 BKN036 13/08 Q1019 NOSIG RMK WIND 1200FT 15014KT ENBR 190520Z 15003KT 9999 BKN036 13/09 Q1019 NOSIG RMK WIND 1200FT 15013KT ENBR 190450Z VRB02KT 9999 BKN035 13/09 Q1019 BECMG 14010KT RMK WIND 1200FT 15013KT TAF ENBR 1906/2006 16008KT 9999 BKN035